Time;durP1;ratioP1;P1;durP2;ratioP2;P2;SDS_P1;SDS_P2;PMS_P1;PMS_P2;Temp;Humidity;BMP_temperature;BMP_pressure;BME280_temperature;BME280_humidity;BME280_pressure;Samples;Min_cycle;Max_cycle;Signal;HPM_P1;HPM_P2
2024/01/31 00:01:45;;;;;;;0.00;0.00;;;0.60;99.90;;;;;;5060306;28;20077;-65
2024/01/31 00:04:11;;;;;;;0.00;0.00;;;0.60;99.90;;;;;;5058470;28;20052;-66
2024/01/31 00:06:36;;;;;;;0.00;0.00;;;0.70;99.90;;;;;;5060707;28;20032;-65
2024/01/31 00:09:03;;;;;;;0.00;0.00;;;0.60;99.90;;;;;;5056742;28;20017;-65
2024/01/31 00:11:29;;;;;;;0.00;0.00;;;0.70;99.90;;;;;;5065415;28;20077;-64
2024/01/31 00:13:56;;;;;;;0.00;0.00;;;0.60;99.90;;;;;;5062000;28;20515;-63
2024/01/31 00:16:22;;;;;;;0.00;0.00;;;0.50;99.90;;;;;;5063834;28;20081;-63
2024/01/31 00:18:50;;;;;;;0.00;0.00;;;0.50;99.90;;;;;;5058124;28;20039;-62
2024/01/31 00:21:16;;;;;;;0.03;0.03;;;0.50;99.90;;;;;;5061437;28;20074;-62
2024/01/31 00:23:42;;;;;;;0.00;0.00;;;0.50;99.90;;;;;;5060771;28;20024;-64
2024/01/31 00:26:08;;;;;;;0.00;0.00;;;0.40;99.90;;;;;;5063061;28;20075;-63
2024/01/31 00:28:33;;;;;;;0.00;0.00;;;0.40;99.90;;;;;;5059299;28;20066;-62
2024/01/31 00:30:59;;;;;;;0.00;0.00;;;0.50;99.90;;;;;;5062732;28;20411;-63
2024/01/31 00:33:25;;;;;;;0.00;0.00;;;0.50;99.90;;;;;;5058518;28;20040;-64
2024/01/31 00:35:50;;;;;;;0.00;0.00;;;0.40;99.90;;;;;;5050959;28;20057;-64
2024/01/31 00:38:16;;;;;;;3.00;0.97;;;0.40;99.90;;;;;;5056009;28;20070;-62
2024/01/31 00:40:42;;;;;;;0.37;0.30;;;0.30;99.90;;;;;;5057593;28;20024;-63
2024/01/31 00:43:10;;;;;;;0.00;0.00;;;0.30;99.90;;;;;;5058025;28;20028;-63
2024/01/31 00:45:35;;;;;;;0.10;0.10;;;0.20;99.90;;;;;;5059292;28;20032;-63
2024/01/31 00:48:02;;;;;;;0.00;0.00;;;0.20;99.90;;;;;;5061760;28;20036;-63
2024/01/31 00:50:27;;;;;;;0.00;0.00;;;0.30;99.90;;;;;;5061832;28;20392;-64
2024/01/31 00:52:53;;;;;;;0.00;0.00;;;0.30;99.90;;;;;;5057513;28;20036;-63
2024/01/31 00:55:19;;;;;;;0.00;0.00;;;0.30;99.90;;;;;;5060563;28;20016;-63
2024/01/31 00:57:46;;;;;;;0.00;0.00;;;0.30;99.90;;;;;;5058559;28;20119;-63
2024/01/31 01:00:12;;;;;;;0.00;0.00;;;0.30;99.90;;;;;;5053756;28;20290;-63
2024/01/31 01:02:40;;;;;;;0.00;0.00;;;0.30;99.90;;;;;;5061114;28;20086;-63
2024/01/31 01:05:09;;;;;;;0.00;0.00;;;0.20;99.90;;;;;;5057882;28;20020;-63
2024/01/31 01:07:41;;;;;;;0.00;0.00;;;0.20;99.90;;;;;;5055472;28;20111;-62
2024/01/31 01:10:12;;;;;;;0.00;0.00;;;0.20;99.90;;;;;;5056304;28;20063;-63
2024/01/31 01:12:38;;;;;;;0.25;0.25;;;0.30;99.90;;;;;;5056601;28;20051;-63
2024/01/31 01:15:05;;;;;;;0.00;0.00;;;0.20;99.90;;;;;;5056887;28;20096;-64
2024/01/31 01:17:31;;;;;;;0.00;0.00;;;0.20;99.90;;;;;;5058166;28;20056;-64
2024/01/31 01:19:57;;;;;;;0.00;0.00;;;0.30;99.90;;;;;;5057172;28;20685;-64
2024/01/31 01:22:23;;;;;;;0.00;0.00;;;0.30;99.90;;;;;;5058428;28;20039;-63
2024/01/31 01:24:49;;;;;;;0.00;0.00;;;0.30;99.90;;;;;;5057736;28;20175;-64
2024/01/31 01:27:14;;;;;;;0.00;0.00;;;0.30;99.90;;;;;;5059215;28;20820;-62
2024/01/31 01:29:40;;;;;;;0.00;0.00;;;0.20;99.90;;;;;;5058271;28;20482;-63
2024/01/31 01:32:06;;;;;;;0.00;0.00;;;0.30;99.90;;;;;;5059228;28;20066;-63
2024/01/31 01:34:31;;;;;;;0.00;0.00;;;0.30;99.90;;;;;;5057767;28;20017;-64
2024/01/31 01:36:57;;;;;;;0.00;0.00;;;0.20;99.90;;;;;;5058934;28;20031;-62
2024/01/31 01:39:22;;;;;;;0.00;0.00;;;0.20;99.90;;;;;;5060348;28;20025;-63
2024/01/31 01:41:49;;;;;;;0.00;0.00;;;0.30;99.90;;;;;;5059825;28;20042;-63
2024/01/31 01:44:15;;;;;;;0.00;0.00;;;0.20;99.90;;;;;;5061917;28;20029;-63
2024/01/31 01:46:42;;;;;;;0.00;0.00;;;0.20;99.90;;;;;;5053835;28;20027;-62
2024/01/31 01:49:08;;;;;;;0.25;0.25;;;0.20;99.90;;;;;;5061342;28;20029;-63
2024/01/31 01:51:34;;;;;;;0.00;0.00;;;0.20;99.90;;;;;;5059081;28;20459;-63
2024/01/31 01:54:00;;;;;;;2.28;0.63;;;0.20;99.90;;;;;;5054466;28;20024;-63
2024/01/31 01:56:27;;;;;;;0.00;0.00;;;0.20;99.90;;;;;;5057804;28;20392;-63
2024/01/31 01:58:52;;;;;;;;;;;0.20;99.90;;;;;;5062188;28;20040;-64
2024/01/31 02:01:18;;;;;;;0.00;0.00;;;0.20;99.90;;;;;;5054762;28;19909;-63
2024/01/31 02:03:45;;;;;;;0.08;0.08;;;0.20;99.90;;;;;;5057698;28;20067;-62
2024/01/31 02:06:11;;;;;;;0.00;0.00;;;0.20;99.90;;;;;;5057639;28;20056;-63
2024/01/31 02:08:36;;;;;;;0.00;0.00;;;0.20;99.90;;;;;;5058452;28;20024;-63
2024/01/31 02:11:03;;;;;;;0.00;0.00;;;0.20;99.90;;;;;;5051430;28;20039;-63
2024/01/31 02:13:30;;;;;;;0.15;0.15;;;0.20;99.90;;;;;;5057679;28;20472;-63
2024/01/31 02:15:57;;;;;;;0.00;0.00;;;0.20;99.90;;;;;;5056014;28;20027;-62
2024/01/31 02:18:25;;;;;;;0.00;0.00;;;0.20;99.90;;;;;;5056323;28;20034;-64
2024/01/31 02:20:50;;;;;;;0.00;0.00;;;0.20;99.90;;;;;;5056575;28;20025;-63
2024/01/31 02:23:16;;;;;;;0.00;0.00;;;0.20;99.90;;;;;;5060101;28;20028;-63
2024/01/31 02:25:42;;;;;;;0.00;0.00;;;0.20;99.90;;;;;;5084355;28;20115;-64
2024/01/31 02:28:08;;;;;;;0.00;0.00;;;0.20;99.90;;;;;;5053072;28;20112;-63
2024/01/31 02:30:34;;;;;;;0.27;0.27;;;0.20;99.90;;;;;;5057995;28;20013;-63
2024/01/31 02:32:59;;;;;;;0.00;0.00;;;0.20;99.90;;;;;;5055662;28;20028;-63
2024/01/31 02:35:25;;;;;;;0.00;0.00;;;0.20;99.90;;;;;;5057467;28;20029;-62
2024/01/31 02:37:51;;;;;;;0.00;0.00;;;0.20;99.90;;;;;;5057441;28;20031;-63
2024/01/31 02:40:16;;;;;;;0.00;0.00;;;0.20;99.90;;;;;;5057134;28;20359;-63
2024/01/31 02:42:43;;;;;;;0.00;0.00;;;0.20;99.90;;;;;;5058224;28;20022;-62
2024/01/31 02:45:09;;;;;;;0.10;0.10;;;0.20;99.90;;;;;;5058719;28;20120;-64
2024/01/31 02:47:35;;;;;;;0.00;0.00;;;0.20;99.90;;;;;;5056230;28;20039;-63
2024/01/31 02:50:02;;;;;;;0.00;0.00;;;0.20;99.90;;;;;;5056403;28;20012;-64
2024/01/31 02:52:27;;;;;;;0.05;0.05;;;0.20;99.90;;;;;;5048861;28;20024;-63
2024/01/31 02:54:53;;;;;;;0.00;0.00;;;0.20;99.90;;;;;;5054657;28;20013;-63
2024/01/31 02:57:19;;;;;;;8.03;1.50;;;0.20;99.90;;;;;;5062404;28;20028;-64
2024/01/31 02:59:45;;;;;;;0.60;0.60;;;0.20;99.90;;;;;;5055312;28;20031;-62
2024/01/31 03:02:11;;;;;;;0.13;0.13;;;0.20;99.90;;;;;;5052291;28;20032;-63
2024/01/31 03:04:36;;;;;;;0.00;0.00;;;0.20;99.90;;;;;;5057733;28;20390;-63
2024/01/31 03:07:02;;;;;;;0.00;0.00;;;0.20;99.90;;;;;;5057687;28;20032;-62
2024/01/31 03:09:28;;;;;;;0.00;0.00;;;0.20;99.90;;;;;;5057906;28;20020;-62
2024/01/31 03:11:54;;;;;;;0.13;0.13;;;0.20;99.90;;;;;;5060000;28;20468;-65
2024/01/31 03:14:20;;;;;;;0.00;0.00;;;0.20;99.90;;;;;;5053279;28;20040;-63
2024/01/31 03:16:46;;;;;;;0.00;0.00;;;0.10;99.90;;;;;;5056098;28;20265;-64
2024/01/31 03:19:11;;;;;;;0.00;0.00;;;0.10;99.90;;;;;;5052886;28;20033;-63
2024/01/31 03:21:37;;;;;;;0.00;0.00;;;0.10;99.90;;;;;;5056310;28;20024;-63
2024/01/31 03:24:03;;;;;;;0.00;0.00;;;0.20;99.90;;;;;;5059773;28;20024;-63
2024/01/31 03:26:29;;;;;;;0.00;0.00;;;0.20;99.90;;;;;;5057608;28;20138;-62
2024/01/31 03:28:54;;;;;;;0.00;0.00;;;0.30;99.90;;;;;;5058487;28;20354;-64
2024/01/31 03:31:20;;;;;;;0.00;0.00;;;0.30;99.90;;;;;;5055239;28;20021;-62
2024/01/31 03:33:46;;;;;;;0.00;0.00;;;0.30;99.90;;;;;;5053412;28;20486;-63
2024/01/31 03:36:12;;;;;;;0.00;0.00;;;0.30;99.90;;;;;;5051512;28;20024;-63
2024/01/31 03:38:39;;;;;;;0.13;0.13;;;0.30;99.90;;;;;;5055100;28;20024;-63
2024/01/31 03:41:06;;;;;;;;;;;0.30;99.90;;;;;;5055487;28;20032;-63
2024/01/31 03:43:31;;;;;;;0.05;0.05;;;0.40;99.90;;;;;;5059063;28;19931;-65
2024/01/31 03:45:57;;;;;;;0.00;0.00;;;0.40;99.90;;;;;;5061099;28;20099;-64
2024/01/31 03:48:23;;;;;;;0.00;0.00;;;0.40;99.90;;;;;;5058980;28;20036;-64
2024/01/31 03:50:48;;;;;;;0.00;0.00;;;0.40;99.90;;;;;;5059869;28;20024;-65
2024/01/31 03:53:14;;;;;;;0.10;0.10;;;0.50;99.90;;;;;;5056589;28;20178;-64
2024/01/31 03:55:40;;;;;;;0.00;0.00;;;0.50;99.90;;;;;;5059897;28;20043;-65
2024/01/31 03:58:06;;;;;;;0.03;0.03;;;0.50;99.90;;;;;;5059784;28;20033;-64
2024/01/31 04:00:31;;;;;;;0.00;0.00;;;0.40;99.90;;;;;;5058293;28;20033;-65
2024/01/31 04:02:57;;;;;;;0.10;0.07;;;0.40;99.90;;;;;;5065297;28;20111;-65
2024/01/31 04:05:23;;;;;;;0.00;0.00;;;0.50;99.90;;;;;;5064516;28;20044;-65
2024/01/31 04:07:48;;;;;;;0.00;0.00;;;0.50;99.90;;;;;;5062710;28;20033;-65
2024/01/31 04:10:14;;;;;;;0.00;0.00;;;0.50;99.90;;;;;;5061692;28;20100;-64
2024/01/31 04:12:40;;;;;;;0.07;0.07;;;0.50;99.90;;;;;;5059342;28;20632;-65
2024/01/31 04:15:06;;;;;;;0.00;0.00;;;0.50;99.90;;;;;;5061647;28;20021;-64
2024/01/31 04:17:32;;;;;;;0.00;0.00;;;0.50;99.90;;;;;;5060237;28;20363;-65
2024/01/31 04:19:57;;;;;;;0.00;0.00;;;0.50;99.90;;;;;;5061350;28;20171;-64
2024/01/31 04:22:23;;;;;;;0.00;0.00;;;0.50;99.90;;;;;;5058390;28;20127;-65
2024/01/31 04:24:48;;;;;;;0.00;0.00;;;0.50;99.90;;;;;;5059101;28;20115;-65
2024/01/31 04:27:14;;;;;;;0.43;0.40;;;0.60;99.90;;;;;;5061991;28;20169;-65
2024/01/31 04:29:40;;;;;;;0.00;0.00;;;0.60;99.90;;;;;;5060148;28;20111;-65
2024/01/31 04:32:07;;;;;;;0.00;0.00;;;0.50;99.90;;;;;;5058606;28;20035;-65
2024/01/31 04:34:34;;;;;;;0.15;0.15;;;0.60;99.90;;;;;;5059810;28;20056;-65
2024/01/31 04:37:01;;;;;;;0.20;0.17;;;0.60;99.90;;;;;;5058500;28;20020;-64
2024/01/31 04:39:26;;;;;;;0.15;0.15;;;0.60;99.90;;;;;;5056613;28;20028;-65
2024/01/31 04:41:52;;;;;;;0.00;0.00;;;0.60;99.90;;;;;;5057705;28;20029;-65
2024/01/31 04:44:18;;;;;;;0.00;0.00;;;0.50;99.90;;;;;;5055627;28;20028;-65
2024/01/31 04:46:44;;;;;;;0.00;0.00;;;0.50;99.90;;;;;;5060615;28;20041;-64
2024/01/31 04:49:10;;;;;;;;;;;0.50;99.90;;;;;;5063434;28;20085;-64
2024/01/31 04:51:40;;;;;;;0.00;0.00;;;0.50;99.90;;;;;;5060647;28;19908;-64
2024/01/31 04:54:06;;;;;;;0.00;0.00;;;0.40;99.90;;;;;;5058894;28;20558;-64
2024/01/31 04:56:32;;;;;;;0.00;0.00;;;0.40;99.90;;;;;;5059610;28;20056;-64
2024/01/31 04:58:57;;;;;;;0.00;0.00;;;0.40;99.90;;;;;;5059178;28;20379;-62
2024/01/31 05:01:23;;;;;;;0.00;0.00;;;0.40;99.90;;;;;;5059852;28;20020;-62
2024/01/31 05:03:49;;;;;;;0.53;0.50;;;0.40;99.90;;;;;;5058328;28;20043;-63
2024/01/31 05:06:15;;;;;;;0.00;0.00;;;0.30;99.90;;;;;;5062398;28;20013;-63
2024/01/31 05:08:40;;;;;;;0.00;0.00;;;0.30;99.90;;;;;;5054748;28;20024;-62
2024/01/31 05:11:06;;;;;;;0.00;0.00;;;0.20;99.90;;;;;;5060556;28;20032;-63
2024/01/31 05:13:32;;;;;;;0.00;0.00;;;0.20;99.90;;;;;;5060260;28;20020;-65
2024/01/31 05:15:57;;;;;;;0.00;0.00;;;0.30;99.90;;;;;;5056952;28;20021;-62
2024/01/31 05:18:23;;;;;;;0.00;0.00;;;0.30;99.90;;;;;;5061237;28;20040;-62
2024/01/31 05:20:49;;;;;;;0.00;0.00;;;0.30;99.90;;;;;;5057595;28;20368;-64
2024/01/31 05:23:14;;;;;;;0.10;0.10;;;0.30;99.90;;;;;;5061618;28;20017;-63
2024/01/31 05:25:40;;;;;;;0.00;0.00;;;0.20;99.90;;;;;;5055661;28;20123;-62
2024/01/31 05:28:06;;;;;;;0.00;0.00;;;0.30;99.90;;;;;;5058521;28;20012;-61
2024/01/31 05:30:31;;;;;;;0.00;0.00;;;0.30;99.90;;;;;;5063284;28;20017;-63
2024/01/31 05:32:57;;;;;;;0.00;0.00;;;0.30;99.90;;;;;;5054060;28;20024;-63
2024/01/31 05:35:24;;;;;;;0.00;0.00;;;0.30;99.90;;;;;;5058560;28;20534;-62
2024/01/31 05:37:49;;;;;;;0.00;0.00;;;0.30;99.90;;;;;;5055704;28;20056;-62
2024/01/31 05:40:16;;;;;;;0.10;0.10;;;0.30;99.90;;;;;;5058915;28;20605;-63
2024/01/31 05:42:45;;;;;;;0.00;0.00;;;0.30;99.90;;;;;;5062650;28;20756;-63
2024/01/31 05:45:10;;;;;;;0.20;0.20;;;0.30;99.90;;;;;;5058031;28;20032;-63
2024/01/31 05:47:36;;;;;;;0.83;0.50;;;0.30;99.90;;;;;;5058644;28;20028;-63
2024/01/31 05:50:02;;;;;;;0.00;0.00;;;0.20;99.90;;;;;;5056103;28;20252;-62
2024/01/31 05:52:27;;;;;;;0.10;0.10;;;0.20;99.90;;;;;;5056519;28;20047;-61
2024/01/31 05:54:54;;;;;;;4.80;0.73;;;0.20;99.90;;;;;;5056708;28;20462;-62
2024/01/31 05:57:20;;;;;;;0.13;0.13;;;0.20;99.90;;;;;;5060528;28;20036;-62
2024/01/31 05:59:45;;;;;;;0.20;0.20;;;0.20;99.90;;;;;;5056571;28;20028;-62
2024/01/31 06:02:11;;;;;;;0.00;0.00;;;0.20;99.90;;;;;;5060194;28;20032;-62
2024/01/31 06:04:36;;;;;;;0.00;0.00;;;0.20;99.90;;;;;;5055911;28;20028;-62
2024/01/31 06:07:02;;;;;;;0.27;0.27;;;0.20;99.90;;;;;;5065816;28;20498;-62
2024/01/31 06:09:28;;;;;;;0.00;0.00;;;0.20;99.90;;;;;;5056218;28;20020;-61
2024/01/31 06:11:53;;;;;;;0.00;0.00;;;0.20;99.90;;;;;;5062552;28;20111;-62
2024/01/31 06:14:19;;;;;;;0.00;0.00;;;0.20;99.90;;;;;;5056804;28;20218;-63
2024/01/31 06:16:45;;;;;;;0.57;0.40;;;0.20;99.90;;;;;;5060721;28;20020;-62
2024/01/31 06:19:10;;;;;;;0.00;0.00;;;0.20;99.90;;;;;;5058521;28;20154;-59
2024/01/31 06:21:36;;;;;;;0.00;0.00;;;0.20;99.90;;;;;;5059738;28;20024;-65
2024/01/31 06:24:02;;;;;;;0.00;0.00;;;0.20;99.90;;;;;;5061292;28;20027;-63
2024/01/31 06:26:28;;;;;;;0.00;0.00;;;0.30;99.90;;;;;;5055473;28;20529;-63
2024/01/31 06:28:56;;;;;;;0.25;0.25;;;0.20;99.90;;;;;;5061364;28;20025;-72
2024/01/31 06:31:27;;;;;;;0.65;0.65;;;0.20;99.90;;;;;;5058042;28;20040;-63
2024/01/31 06:33:52;;;;;;;0.10;0.10;;;0.30;99.90;;;;;;5055566;28;20092;-63
2024/01/31 06:36:20;;;;;;;0.10;0.10;;;0.30;99.90;;;;;;5057514;28;20029;-63
2024/01/31 06:38:46;;;;;;;0.57;0.47;;;0.40;99.90;;;;;;5054352;28;20112;-62
2024/01/31 06:41:16;;;;;;;0.05;0.05;;;0.30;99.90;;;;;;5060614;28;20051;-63
2024/01/31 06:43:41;;;;;;;0.00;0.00;;;0.30;99.90;;;;;;5058276;28;20373;-62
2024/01/31 06:46:07;;;;;;;0.53;0.53;;;0.30;99.90;;;;;;5057529;28;20028;-64
2024/01/31 06:48:33;;;;;;;0.47;0.47;;;0.40;99.90;;;;;;5062844;28;20025;-62
2024/01/31 06:50:59;;;;;;;0.00;0.00;;;0.40;99.90;;;;;;5057274;28;20069;-62
2024/01/31 06:53:25;;;;;;;0.63;0.30;;;0.40;99.90;;;;;;5055617;28;20356;-62
2024/01/31 06:55:51;;;;;;;0.43;0.43;;;0.50;99.90;;;;;;5059858;28;20020;-63
2024/01/31 06:58:16;;;;;;;0.00;0.00;;;0.50;99.90;;;;;;5055814;28;20025;-63
2024/01/31 07:00:42;;;;;;;0.07;0.07;;;1.00;99.90;;;;;;5052575;28;20104;-63
2024/01/31 07:03:08;;;;;;;0.00;0.00;;;0.90;99.90;;;;;;5055757;28;20513;-64
2024/01/31 07:05:34;;;;;;;0.00;0.00;;;0.80;99.90;;;;;;5042848;28;20029;-62
2024/01/31 07:07:59;;;;;;;0.00;0.00;;;0.70;99.90;;;;;;5052148;28;20032;-62
2024/01/31 07:10:25;;;;;;;0.13;0.13;;;0.70;99.90;;;;;;5045506;28;20388;-63
2024/01/31 07:12:52;;;;;;;9.37;0.57;;;0.70;99.90;;;;;;5036257;28;20110;-62
2024/01/31 07:15:22;;;;;;;0.00;0.00;;;0.80;99.90;;;;;;5042000;28;20398;-63
2024/01/31 07:17:47;;;;;;;0.00;0.00;;;0.80;99.90;;;;;;5035853;28;20024;-63
2024/01/31 07:20:13;;;;;;;0.30;0.10;;;0.90;99.90;;;;;;5034405;28;20016;-63
2024/01/31 07:22:39;;;;;;;0.00;0.00;;;1.00;99.90;;;;;;5041319;28;20072;-65
2024/01/31 07:25:10;;;;;;;0.77;0.77;;;1.00;99.90;;;;;;5039850;28;20271;-64
2024/01/31 07:27:40;;;;;;;2.88;0.90;;;1.10;99.90;;;;;;5036797;28;20070;-63
2024/01/31 07:30:11;;;;;;;0.00;0.00;;;1.20;99.90;;;;;;5040867;28;20131;-64
2024/01/31 07:32:39;;;;;;;0.00;0.00;;;1.20;99.90;;;;;;5040791;28;20021;-63
2024/01/31 07:35:09;;;;;;;0.00;0.00;;;1.40;99.90;;;;;;5040464;28;20029;-62
2024/01/31 07:37:37;;;;;;;0.40;0.40;;;1.50;99.90;;;;;;5041898;28;20516;-62
2024/01/31 07:40:05;;;;;;;0.10;0.10;;;1.50;99.90;;;;;;5042044;28;20024;-62
2024/01/31 07:42:31;;;;;;;0.30;0.30;;;1.60;99.90;;;;;;5035722;28;20023;-63
2024/01/31 07:44:56;;;;;;;0.00;0.00;;;1.80;99.90;;;;;;5051275;28;20028;-60
2024/01/31 07:47:22;;;;;;;1.20;0.60;;;2.10;99.90;;;;;;5033764;28;20029;-62
2024/01/31 07:49:48;;;;;;;0.00;0.00;;;2.50;99.90;;;;;;5038071;28;20029;-61
2024/01/31 07:52:13;;;;;;;0.00;0.00;;;2.80;99.90;;;;;;5032230;28;20067;-62
2024/01/31 07:54:39;;;;;;;0.00;0.00;;;2.80;99.90;;;;;;5038275;28;20135;-62
2024/01/31 07:57:05;;;;;;;0.22;0.22;;;3.00;99.90;;;;;;5054052;28;20477;-63
2024/01/31 07:59:30;;;;;;;0.00;0.00;;;3.90;99.90;;;;;;5037907;28;20649;-63
2024/01/31 08:01:56;;;;;;;1.00;0.50;;;4.60;99.90;;;;;;5041041;28;20436;-63
2024/01/31 08:04:22;;;;;;;0.00;0.00;;;5.00;99.90;;;;;;5034366;28;20037;-63
2024/01/31 08:06:47;;;;;;;0.00;0.00;;;5.50;99.90;;;;;;5038116;28;20021;-63
2024/01/31 08:09:15;;;;;;;0.63;0.63;;;5.30;99.90;;;;;;5040263;28;20040;-62
2024/01/31 08:11:44;;;;;;;0.00;0.00;;;5.30;99.90;;;;;;5039155;28;20021;-62
2024/01/31 08:14:10;;;;;;;0.15;0.15;;;5.10;99.90;;;;;;5048399;28;20029;-64
2024/01/31 08:16:39;;;;;;;1.13;0.82;;;4.80;99.90;;;;;;5052189;28;20014;-63
2024/01/31 08:19:04;;;;;;;0.00;0.00;;;4.30;99.90;;;;;;5035746;28;20021;-62
2024/01/31 08:21:33;;;;;;;0.00;0.00;;;3.90;99.90;;;;;;5048560;28;20017;-63
2024/01/31 08:23:59;;;;;;;0.00;0.00;;;3.50;99.90;;;;;;5036581;28;20636;-64
2024/01/31 08:26:25;;;;;;;0.10;0.10;;;3.20;99.90;;;;;;5032948;28;20059;-64
2024/01/31 08:28:50;;;;;;;0.00;0.00;;;3.00;99.90;;;;;;5038141;28;20182;-64
2024/01/31 08:31:16;;;;;;;0.00;0.00;;;2.90;99.90;;;;;;5036158;28;20020;-64
2024/01/31 08:33:43;;;;;;;0.53;0.53;;;2.90;99.90;;;;;;5043411;28;20063;-64
2024/01/31 08:36:09;;;;;;;0.00;0.00;;;2.90;99.90;;;;;;5041808;28;20024;-64
2024/01/31 08:38:37;;;;;;;0.30;0.30;;;3.00;99.90;;;;;;5040879;28;20028;-64
2024/01/31 08:41:03;;;;;;;1.52;0.80;;;3.40;99.90;;;;;;5042145;28;20100;-65
2024/01/31 08:43:29;;;;;;;0.65;0.65;;;3.60;99.90;;;;;;5053485;28;20025;-63
2024/01/31 08:45:54;;;;;;;0.00;0.00;;;3.90;99.90;;;;;;5058071;28;20029;-64
2024/01/31 08:48:20;;;;;;;0.00;0.00;;;4.00;99.90;;;;;;5036870;28;20064;-64
2024/01/31 08:50:47;;;;;;;0.60;0.60;;;4.50;99.90;;;;;;5040084;28;20052;-64
2024/01/31 08:53:13;;;;;;;0.00;0.00;;;5.20;99.90;;;;;;5041651;28;20472;-64
2024/01/31 08:55:38;;;;;;;0.00;0.00;;;5.50;99.90;;;;;;5040762;28;20082;-64
2024/01/31 08:58:04;;;;;;;0.00;0.00;;;5.90;99.90;;;;;;5039322;28;20070;-64
2024/01/31 09:00:30;;;;;;;0.00;0.00;;;6.30;99.90;;;;;;5039226;28;20017;-64
2024/01/31 09:02:57;;;;;;;0.00;0.00;;;6.70;99.90;;;;;;5040415;28;20025;-64
2024/01/31 09:05:22;;;;;;;0.00;0.00;;;7.10;99.90;;;;;;5055614;28;20024;-63
2024/01/31 09:07:48;;;;;;;0.32;0.32;;;7.40;99.90;;;;;;5054101;28;20067;-64
2024/01/31 09:10:14;;;;;;;0.00;0.00;;;8.60;99.90;;;;;;5042412;28;20040;-63
2024/01/31 09:12:39;;;;;;;0.10;0.10;;;10.00;99.90;;;;;;5056402;28;20036;-65
2024/01/31 09:15:05;;;;;;;0.33;0.33;;;10.20;99.90;;;;;;5042272;28;20017;-64
2024/01/31 09:17:31;;;;;;;3.42;1.55;;;11.00;99.90;;;;;;5054989;28;20070;-64
2024/01/31 09:19:57;;;;;;;0.07;0.07;;;11.80;98.50;;;;;;5039579;28;20025;-64
2024/01/31 09:22:24;;;;;;;0.00;0.00;;;11.80;97.20;;;;;;5036185;28;20272;-64
2024/01/31 09:24:50;;;;;;;0.57;0.57;;;12.40;97.00;;;;;;5042620;28;20717;-64
2024/01/31 09:27:19;;;;;;;0.80;0.55;;;12.80;95.40;;;;;;5037520;28;20036;-64
2024/01/31 09:29:47;;;;;;;0.00;0.00;;;12.70;94.70;;;;;;5041858;28;20078;-65
2024/01/31 09:32:14;;;;;;;0.00;0.00;;;13.40;94.40;;;;;;5037219;28;20035;-65
2024/01/31 09:34:41;;;;;;;0.10;0.10;;;13.60;91.50;;;;;;5039540;28;20116;-64
2024/01/31 09:37:06;;;;;;;0.00;0.00;;;13.30;92.30;;;;;;5042113;28;20472;-63
2024/01/31 09:39:32;;;;;;;5.47;1.17;;;14.30;91.80;;;;;;5038588;28;20035;-65
2024/01/31 09:41:58;;;;;;;0.73;0.73;;;14.50;91.40;;;;;;5036366;28;20511;-64
2024/01/31 09:44:24;;;;;;;0.93;0.30;;;13.10;91.70;;;;;;5038664;28;20148;-63
2024/01/31 09:46:53;;;;;;;0.25;0.25;;;13.50;91.20;;;;;;5041549;28;20036;-64
2024/01/31 09:49:18;;;;;;;1.98;1.00;;;14.10;91.20;;;;;;5039071;28;20021;-64
2024/01/31 09:51:44;;;;;;;0.00;0.00;;;12.90;90.60;;;;;;5037217;28;20807;-65
2024/01/31 09:54:10;;;;;;;0.00;0.00;;;12.80;92.20;;;;;;5040049;28;20365;-65
2024/01/31 09:56:36;;;;;;;0.00;0.00;;;14.40;90.50;;;;;;5039436;28;20028;-64
2024/01/31 09:59:03;;;;;;;0.10;0.10;;;13.70;89.60;;;;;;5037674;28;20033;-64
2024/01/31 10:01:29;;;;;;;;;;;12.20;91.80;;;;;;5037036;28;20056;-63
2024/01/31 10:03:57;;;;;;;0.00;0.00;;;12.40;92.00;;;;;;5031626;28;19947;-64
2024/01/31 10:06:25;;;;;;;0.10;0.10;;;11.90;92.30;;;;;;5035355;28;20448;-67
2024/01/31 10:08:50;;;;;;;0.00;0.00;;;11.50;93.30;;;;;;5052755;28;20041;-67
2024/01/31 10:11:16;;;;;;;0.20;0.20;;;12.20;92.70;;;;;;5040014;28;20086;-67
2024/01/31 10:13:42;;;;;;;5.03;0.63;;;12.20;92.90;;;;;;5056046;28;20029;-65
2024/01/31 10:16:07;;;;;;;0.10;0.10;;;13.40;91.30;;;;;;5036495;28;20119;-64
2024/01/31 10:18:33;;;;;;;0.43;0.43;;;14.40;90.40;;;;;;5040003;28;20028;-63
2024/01/31 10:20:59;;;;;;;0.20;0.20;;;13.70;89.90;;;;;;5038541;28;20040;-64
2024/01/31 10:23:25;;;;;;;0.20;0.10;;;14.00;90.20;;;;;;5033944;28;20056;-64
2024/01/31 10:25:51;;;;;;;;;;;15.20;87.10;;;;;;5056299;28;20040;-64
2024/01/31 10:28:20;;;;;;;0.82;0.60;;;17.30;83.30;;;;;;5036218;28;19909;-65
2024/01/31 10:30:47;;;;;;;0.63;0.63;;;16.20;83.50;;;;;;5036722;28;20056;-65
2024/01/31 10:33:13;;;;;;;;;;;16.00;81.30;;;;;;5039957;28;20039;-64
2024/01/31 10:35:43;;;;;;;0.00;0.00;;;14.40;82.80;;;;;;5037621;28;20007;-65
2024/01/31 10:38:12;;;;;;;0.80;0.25;;;15.20;84.50;;;;;;5037747;28;20144;-65
2024/01/31 10:40:40;;;;;;;0.52;0.52;;;15.30;82.90;;;;;;5041331;28;20427;-64
2024/01/31 10:43:08;;;;;;;0.30;0.30;;;15.40;82.10;;;;;;5038206;28;20403;-65
2024/01/31 10:45:34;;;;;;;0.00;0.00;;;14.00;83.30;;;;;;5033765;28;20028;-62
2024/01/31 10:48:04;;;;;;;0.85;0.60;;;15.20;83.10;;;;;;5039193;28;20027;-63
2024/01/31 10:50:33;;;;;;;0.20;0.20;;;17.10;80.20;;;;;;5035596;28;20229;-61
2024/01/31 10:53:01;;;;;;;0.00;0.00;;;14.80;80.50;;;;;;5038417;28;20480;-62
2024/01/31 10:55:28;;;;;;;0.00;0.00;;;15.10;82.80;;;;;;5036290;28;20115;-62
2024/01/31 10:57:54;;;;;;;0.20;0.20;;;14.60;81.60;;;;;;5040543;28;20025;-62
2024/01/31 11:00:30;;;;;;;0.20;0.20;;;15.50;81.80;;;;;;5035121;28;20412;-63
2024/01/31 11:02:57;;;;;;;0.32;0.32;;;16.00;80.30;;;;;;5036337;28;20119;-61
2024/01/31 11:05:25;;;;;;;0.47;0.20;;;16.00;79.20;;;;;;5039517;28;20028;-62
2024/01/31 11:07:51;;;;;;;0.00;0.00;;;15.80;79.20;;;;;;5033908;28;21406;-62
2024/01/31 11:10:20;;;;;;;0.47;0.30;;;14.50;80.90;;;;;;5035440;28;20033;-61
2024/01/31 11:13:04;;;;;;;1.48;0.95;;;13.20;84.10;;;;;;5032109;28;20044;-62
2024/01/31 11:15:32;;;;;;;0.10;0.10;;;12.30;86.30;;;;;;5066555;28;20549;-62
2024/01/31 11:18:06;;;;;;;0.30;0.30;;;11.30;90.50;;;;;;5032231;28;20021;-62
2024/01/31 11:20:49;;;;;;;0.00;0.00;;;10.50;91.30;;;;;;5037411;28;20480;-62
2024/01/31 11:23:23;;;;;;;0.22;0.22;;;10.40;92.30;;;;;;5054207;28;20033;-63
2024/01/31 11:25:50;;;;;;;0.47;0.30;;;10.00;92.90;;;;;;5033430;28;20060;-64
2024/01/31 11:28:17;;;;;;;0.35;0.20;;;9.60;93.60;;;;;;5051672;28;20048;-63
2024/01/31 11:30:50;;;;;;;0.00;0.00;;;9.50;94.50;;;;;;5040048;28;20013;-63
2024/01/31 11:33:16;;;;;;;0.30;0.22;;;9.20;95.40;;;;;;5036092;28;20036;-63
2024/01/31 11:35:42;;;;;;;0.00;0.00;;;9.40;95.90;;;;;;5036713;28;20422;-63
2024/01/31 11:38:08;;;;;;;0.00;0.00;;;9.50;96.20;;;;;;5034052;28;20072;-62
2024/01/31 11:40:34;;;;;;;0.95;0.43;;;8.80;97.00;;;;;;5055972;28;20457;-63
2024/01/31 11:43:01;;;;;;;0.00;0.00;;;8.40;98.40;;;;;;5050061;28;20021;-63
2024/01/31 11:45:27;;;;;;;0.05;0.05;;;8.20;99.40;;;;;;5036053;28;20036;-63
2024/01/31 11:47:57;;;;;;;0.68;0.68;;;7.90;99.90;;;;;;5031856;28;20036;-63
2024/01/31 11:50:24;;;;;;;0.00;0.00;;;8.00;99.90;;;;;;5036085;28;20485;-63
2024/01/31 11:52:51;;;;;;;0.20;0.20;;;7.80;99.90;;;;;;5036175;28;20036;-63
2024/01/31 11:55:25;;;;;;;0.10;0.10;;;8.00;99.90;;;;;;5052571;28;20025;-67
2024/01/31 11:57:51;;;;;;;0.15;0.15;;;8.20;99.90;;;;;;5033733;28;20064;-66
2024/01/31 12:00:17;;;;;;;0.00;0.00;;;8.30;99.90;;;;;;5052565;28;20028;-66
2024/01/31 12:02:47;;;;;;;0.00;0.00;;;8.50;99.90;;;;;;5049849;28;20063;-66
2024/01/31 12:05:13;;;;;;;0.75;0.75;;;8.40;99.90;;;;;;5061129;28;20221;-66
2024/01/31 12:07:39;;;;;;;0.32;0.32;;;8.60;99.90;;;;;;5044180;28;20673;-66
2024/01/31 12:10:08;;;;;;;0.53;0.53;;;8.30;99.90;;;;;;5036725;28;20017;-66
2024/01/31 12:12:41;;;;;;;0.10;0.10;;;7.70;99.90;;;;;;5040630;28;20028;-65
2024/01/31 12:15:11;;;;;;;0.00;0.00;;;7.60;99.90;;;;;;5041488;28;20016;-66
2024/01/31 12:17:38;;;;;;;0.00;0.00;;;7.80;99.90;;;;;;5057733;28;20036;-65
2024/01/31 12:20:08;;;;;;;0.22;0.22;;;7.80;99.90;;;;;;5038638;28;20025;-66
2024/01/31 12:22:36;;;;;;;0.00;0.00;;;8.00;99.90;;;;;;5037374;28;20500;-66
2024/01/31 12:25:01;;;;;;;0.00;0.00;;;7.70;99.90;;;;;;5050812;28;20510;-66
2024/01/31 12:27:27;;;;;;;0.10;0.10;;;7.90;99.90;;;;;;5037141;28;20033;-66
2024/01/31 12:29:53;;;;;;;0.00;0.00;;;8.20;99.90;;;;;;5042451;28;20622;-66
2024/01/31 12:32:19;;;;;;;0.00;0.00;;;8.10;99.90;;;;;;5044324;28;20037;-66
2024/01/31 12:34:44;;;;;;;0.07;0.07;;;8.10;99.90;;;;;;5037845;28;20403;-66
2024/01/31 12:37:10;;;;;;;0.00;0.00;;;8.40;99.90;;;;;;5039067;28;20028;-66
2024/01/31 12:39:36;;;;;;;0.00;0.00;;;8.10;99.90;;;;;;5035883;28;20029;-66
2024/01/31 12:42:03;;;;;;;0.00;0.00;;;7.90;99.90;;;;;;5054809;28;20680;-66
2024/01/31 12:44:30;;;;;;;0.00;0.00;;;7.80;99.90;;;;;;5039592;28;20031;-64
2024/01/31 12:46:56;;;;;;;0.05;0.05;;;7.50;99.90;;;;;;5055050;28;20879;-67
2024/01/31 12:49:22;;;;;;;0.13;0.13;;;7.50;99.90;;;;;;5041586;28;20927;-66
2024/01/31 12:51:49;;;;;;;0.00;0.00;;;7.20;99.90;;;;;;5038212;28;20116;-68
2024/01/31 12:54:15;;;;;;;0.00;0.00;;;7.30;99.90;;;;;;5042502;28;20037;-67